Time;durP1;ratioP1;P1;durP2;ratioP2;P2;SDS_P1;SDS_P2;PMS_P1;PMS_P2;Temp;Humidity;BMP_temperature;BMP_pressure;BME280_temperature;BME280_humidity;BME280_pressure;Samples;Min_cycle;Max_cycle;Signal;HPM_P1;HPM_P2
2022/04/26 03:37:32;;;;;;;10.70;2.10;;;;;;;;;;4936855;29;20491;-71
2022/04/26 03:39:58;;;;;;;16.40;2.90;;;;;;;;;;4936520;29;20390;-70
2022/04/26 03:42:24;;;;;;;8.25;2.17;;;;;;;;;;4936654;29;20031;-66
2022/04/26 03:44:50;;;;;;;9.70;1.80;;;;;;;;;;4936453;29;20391;-71
2022/04/26 03:47:16;;;;;;;11.48;2.10;;;;;;;;;;4936424;29;20098;-70
2022/04/26 03:49:41;;;;;;;8.15;2.20;;;;;;;;;;4935898;29;20116;-68
2022/04/26 03:52:08;;;;;;;14.18;3.20;;;;;;;;;;4936145;29;20094;-66
2022/04/26 03:54:36;;;;;;;9.88;2.15;;;;;;;;;;4936271;29;20051;-71
2022/04/26 03:57:02;;;;;;;7.70;1.88;;;;;;;;;;4936504;29;20380;-71
2022/04/26 03:59:28;;;;;;;10.10;1.77;;;;;;;;;;4936428;29;20255;-68
2022/04/26 04:01:54;;;;;;;8.82;2.10;;;;;;;;;;4932752;29;20051;-72
2022/04/26 04:04:20;;;;;;;7.53;1.90;;;;;;;;;;4935718;29;20039;-70
2022/04/26 04:06:45;;;;;;;4.78;1.65;;;;;;;;;;4935925;29;20053;-73
2022/04/26 04:09:12;;;;;;;11.85;1.70;;;;;;;;;;4935565;29;20106;-71
2022/04/26 04:11:38;;;;;;;19.05;2.42;;;;;;;;;;4935746;29;20051;-71
2022/04/26 04:14:05;;;;;;;17.75;3.33;;;;;;;;;;4935401;29;20028;-72
2022/04/26 04:16:31;;;;;;;14.88;2.50;;;;;;;;;;4934680;29;20040;-69
2022/04/26 04:21:41;;;;;;;9.55;2.33;;;;;;;;;;4935388;29;20125;-66
2022/04/26 04:24:07;;;;;;;7.55;1.73;;;;;;;;;;4935746;29;20034;-71
2022/04/26 04:26:32;;;;;;;8.85;2.42;;;;;;;;;;4935663;29;20032;-65
2022/04/26 04:28:58;;;;;;;11.95;2.70;;;;;;;;;;4935647;29;20024;-66
2022/04/26 04:31:24;;;;;;;12.73;2.17;;;;;;;;;;4935469;29;20068;-66
2022/04/26 04:33:50;;;;;;;12.45;2.80;;;;;;;;;;4932623;29;20527;-67
2022/04/26 04:36:16;;;;;;;8.35;2.15;;;;;;;;;;4935615;29;20411;-71
2022/04/26 04:38:41;;;;;;;7.68;1.80;;;;;;;;;;4935388;29;20075;-67
2022/04/26 04:41:08;;;;;;;7.25;1.70;;;;;;;;;;4935425;29;20065;-71
2022/04/26 04:43:34;;;;;;;13.85;2.10;;;;;;;;;;4927540;29;20046;-70
2022/04/26 04:46:01;;;;;;;11.15;1.80;;;;;;;;;;4932632;29;20035;-72
2022/04/26 04:48:27;;;;;;;11.07;2.28;;;;;;;;;;4932843;29;20460;-68
2022/04/26 04:50:53;;;;;;;9.77;2.10;;;;;;;;;;4934366;29;20061;-70
2022/04/26 04:59:41;;;;;;;15.13;2.63;;;;;;;;;;4948184;29;20536;-68
2022/04/26 05:02:07;;;;;;;6.72;1.73;;;;;;;;;;4934104;29;20047;-75
2022/04/26 05:04:34;;;;;;;4.13;1.55;;;;;;;;;;4934675;29;20032;-69
2022/04/26 05:06:59;;;;;;;8.00;1.92;;;;;;;;;;4925720;29;20604;-68
2022/04/26 05:09:25;;;;;;;10.40;1.90;;;;;;;;;;4921359;29;20028;-71
2022/04/26 05:11:52;;;;;;;8.98;2.40;;;;;;;;;;4915687;29;20067;-76
2022/04/26 05:14:18;;;;;;;10.52;3.17;;;;;;;;;;4915959;29;20382;-75
2022/04/26 05:16:44;;;;;;;8.20;2.88;;;;;;;;;;4916225;29;20033;-75
2022/04/26 05:19:10;;;;;;;9.23;2.53;;;;;;;;;;4916722;29;20072;-74
2022/04/26 05:21:36;;;;;;;9.18;2.30;;;;;;;;;;4916398;29;20052;-76
2022/04/26 05:26:46;;;;;;;10.88;2.05;;;;;;;;;;4916233;29;20088;-75
2022/04/26 05:29:11;;;;;;;15.38;2.17;;;;;;;;;;4915880;29;20024;-71
2022/04/26 05:31:37;;;;;;;19.00;2.88;;;;;;;;;;4915812;29;20483;-74
2022/04/26 05:34:03;;;;;;;8.98;2.25;;;;;;;;;;4916023;29;20095;-71
2022/04/26 05:36:29;;;;;;;7.63;1.80;;;;;;;;;;4915713;29;20068;-71
2022/04/26 05:38:55;;;;;;;6.30;1.80;;;;;;;;;;4916075;29;20024;-76
2022/04/26 05:41:21;;;;;;;9.68;2.30;;;;;;;;;;4909446;29;20380;-74
2022/04/26 05:43:47;;;;;;;13.05;2.50;;;;;;;;;;4915629;29;20438;-69
2022/04/26 05:46:13;;;;;;;12.88;2.25;;;;;;;;;;4916259;29;20147;-75
2022/04/26 05:48:43;;;;;;;7.75;1.90;;;;;;;;;;4916629;29;20026;-76
2022/04/26 05:51:08;;;;;;;9.60;2.45;;;;;;;;;;4916246;29;20113;-75
2022/04/26 05:53:35;;;;;;;7.72;1.80;;;;;;;;;;4922195;29;20071;-72
2022/04/26 05:56:03;;;;;;;9.13;2.15;;;;;;;;;;4934302;29;20502;-71
2022/04/26 05:58:29;;;;;;;7.88;1.70;;;;;;;;;;4942944;29;20078;-72
2022/04/26 06:00:55;;;;;;;8.23;2.13;;;;;;;;;;4954482;29;20062;-74
2022/04/26 06:03:21;;;;;;;10.90;1.80;;;;;;;;;;4953941;29;20020;-74
2022/04/26 06:05:47;;;;;;;13.77;2.15;;;;;;;;;;4953839;28;20035;-70
2022/04/26 06:08:12;;;;;;;8.00;2.20;;;;;;;;;;4954302;28;20027;-69
2022/04/26 06:10:42;;;;;;;7.90;2.13;;;;;;;;;;4954005;29;20040;-74
2022/04/26 06:13:08;;;;;;;10.57;1.65;;;;;;;;;;4935626;29;20541;-74
2022/04/26 06:15:35;;;;;;;7.38;1.80;;;;;;;;;;4935045;29;20126;-76
2022/04/26 06:18:00;;;;;;;7.05;1.95;;;;;;;;;;4934995;29;20174;-77
2022/04/26 06:20:26;;;;;;;8.52;1.90;;;;;;;;;;4934945;29;20126;-78
2022/04/26 06:22:53;;;;;;;10.57;1.92;;;;;;;;;;4935382;29;20031;-77
2022/04/26 06:25:19;;;;;;;11.07;1.95;;;;;;;;;;4935492;29;20312;-77
2022/04/26 06:27:47;;;;;;;11.75;2.30;;;;;;;;;;4935098;29;20470;-74
2022/04/26 06:30:14;;;;;;;13.48;2.45;;;;;;;;;;4935290;29;20040;-72
2022/04/26 06:32:42;;;;;;;11.00;1.63;;;;;;;;;;4934689;29;20027;-74
2022/04/26 06:35:08;;;;;;;10.25;2.05;;;;;;;;;;4934571;29;20031;-76
2022/04/26 06:37:34;;;;;;;7.75;1.88;;;;;;;;;;4934630;29;20437;-76
2022/04/26 06:39:59;;;;;;;7.32;1.65;;;;;;;;;;4934832;29;20142;-77
2022/04/26 06:42:25;;;;;;;10.25;1.98;;;;;;;;;;4934856;29;20035;-75
2022/04/26 06:44:51;;;;;;;6.38;1.88;;;;;;;;;;4935310;29;20043;-73
2022/04/26 06:47:17;;;;;;;11.48;2.42;;;;;;;;;;4959805;28;20050;-76
2022/04/26 06:49:42;;;;;;;12.35;1.83;;;;;;;;;;4953826;29;20039;-77
2022/04/26 06:52:08;;;;;;;7.35;2.00;;;;;;;;;;4953486;29;20028;-73
2022/04/26 06:54:34;;;;;;;7.47;2.65;;;;;;;;;;4951657;29;20035;-77
2022/04/26 06:57:00;;;;;;;7.00;1.90;;;;;;;;;;4933214;29;20028;-77
2022/04/26 06:59:25;;;;;;;7.45;1.92;;;;;;;;;;4933211;29;20470;-76
2022/04/26 07:01:54;;;;;;;5.63;1.50;;;;;;;;;;4934137;29;20040;-79
2022/04/26 07:04:20;;;;;;;7.47;2.13;;;;;;;;;;4931632;29;20406;-78
2022/04/26 07:06:47;;;;;;;7.22;1.98;;;;;;;;;;4933966;29;20031;-77
2022/04/26 07:09:13;;;;;;;9.55;2.13;;;;;;;;;;4936105;29;20038;-76
2022/04/26 07:11:42;;;;;;;12.02;2.30;;;;;;;;;;4936651;29;20035;-72
2022/04/26 07:14:12;;;;;;;12.68;2.47;;;;;;;;;;4936683;29;20027;-73
2022/04/26 07:16:38;;;;;;;14.35;2.60;;;;;;;;;;4936969;29;20486;-72
2022/04/26 07:19:04;;;;;;;6.47;1.95;;;;;;;;;;4935924;29;20038;-75
2022/04/26 07:21:31;;;;;;;13.02;2.28;;;;;;;;;;4935932;29;20520;-73
2022/04/26 07:23:57;;;;;;;11.63;2.42;;;;;;;;;;4936710;29;20051;-77
2022/04/26 07:26:23;;;;;;;8.45;1.77;;;;;;;;;;4942142;29;20106;-77
2022/04/26 07:28:48;;;;;;;12.68;2.05;;;;;;;;;;4941057;29;20496;-76
2022/04/26 07:31:14;;;;;;;12.18;2.00;;;;;;;;;;4936981;29;20135;-77
2022/04/26 07:36:24;;;;;;;11.25;1.90;;;;;;;;;;4935821;29;20043;-74
2022/04/26 07:38:50;;;;;;;6.65;1.65;;;;;;;;;;4936696;29;20024;-76
2022/04/26 07:41:17;;;;;;;8.85;2.13;;;;;;;;;;4936217;29;20038;-74
2022/04/26 07:43:44;;;;;;;10.45;1.75;;;;;;;;;;4936887;29;20381;-76
2022/04/26 07:46:14;;;;;;;10.50;2.10;;;;;;;;;;4936621;29;20073;-75
2022/04/26 07:48:43;;;;;;;5.78;1.70;;;;;;;;;;4936367;29;20051;-75
2022/04/26 07:51:10;;;;;;;6.07;1.90;;;;;;;;;;4935035;29;20035;-74
2022/04/26 07:53:37;;;;;;;10.05;1.95;;;;;;;;;;4936318;29;20031;-74
2022/04/26 07:56:04;;;;;;;11.80;2.22;;;;;;;;;;4935387;29;20082;-74
2022/04/26 07:58:34;;;;;;;11.52;1.83;;;;;;;;;;4935787;29;20821;-75
2022/04/26 08:01:01;;;;;;;4.85;1.55;;;;;;;;;;4935425;29;20130;-75
2022/04/26 08:03:27;;;;;;;5.80;1.33;;;;;;;;;;4935669;29;20103;-75
2022/04/26 08:05:53;;;;;;;7.80;1.60;;;;;;;;;;4935725;29;20427;-75
2022/04/26 08:08:19;;;;;;;10.30;2.33;;;;;;;;;;4935758;29;20451;-76
2022/04/26 08:10:45;;;;;;;5.20;1.50;;;;;;;;;;4935079;29;20398;-77
2022/04/26 08:13:11;;;;;;;5.20;1.75;;;;;;;;;;4935628;29;20036;-74
2022/04/26 08:15:39;;;;;;;6.07;1.45;;;;;;;;;;4935898;29;20032;-75
2022/04/26 08:18:05;;;;;;;7.03;1.92;;;;;;;;;;4935135;29;20035;-77
2022/04/26 08:20:32;;;;;;;5.80;1.48;;;;;;;;;;4935092;29;20043;-77
2022/04/26 08:22:59;;;;;;;10.57;1.80;;;;;;;;;;4935151;29;20035;-73
2022/04/26 08:28:10;;;;;;;7.20;1.90;;;;;;;;;;4923850;29;20031;-72
2022/04/26 08:30:36;;;;;;;8.10;2.28;;;;;;;;;;4935614;29;20395;-71
2022/04/26 08:33:02;;;;;;;9.90;1.92;;;;;;;;;;4934152;29;20333;-74
2022/04/26 08:35:28;;;;;;;7.25;1.90;;;;;;;;;;4934299;29;20044;-76
2022/04/26 08:37:54;;;;;;;4.70;1.70;;;;;;;;;;4935353;29;20036;-74
2022/04/26 08:40:19;;;;;;;5.50;1.55;;;;;;;;;;4934857;29;20398;-75
2022/04/26 08:42:47;;;;;;;10.32;2.40;;;;;;;;;;4934192;29;20043;-74
2022/04/26 08:45:15;;;;;;;8.40;1.83;;;;;;;;;;4935091;29;20082;-75
2022/04/26 08:53:16;;;;;;;6.38;1.17;;;;;;;;;;4934954;29;20043;-75
2022/04/26 08:55:43;;;;;;;6.50;1.40;;;;;;;;;;4934716;29;20036;-75
2022/04/26 08:58:14;;;;;;;5.43;1.70;;;;;;;;;;4935081;29;20047;-72
2022/04/26 09:01:01;;;;;;;4.60;1.60;;;;;;;;;;4934525;29;20577;-73
2022/04/26 09:03:30;;;;;;;11.45;1.67;;;;;;;;;;4934830;29;20058;-72
2022/04/26 09:06:13;;;;;;;3.45;1.13;;;;;;;;;;4935091;29;20035;-74
2022/04/26 09:08:43;;;;;;;5.07;1.47;;;;;;;;;;4934156;29;20359;-70
2022/04/26 09:11:33;;;;;;;6.90;1.40;;;;;;;;;;4934246;29;20298;-73
2022/04/26 09:13:59;;;;;;;5.53;1.55;;;;;;;;;;4932287;29;20036;-72
2022/04/26 09:16:30;;;;;;;4.40;1.35;;;;;;;;;;4934638;29;20024;-72
2022/04/26 09:18:59;;;;;;;6.18;1.40;;;;;;;;;;4932532;29;20039;-70
2022/04/26 09:21:28;;;;;;;7.00;1.50;;;;;;;;;;4932618;29;20035;-71
2022/04/26 09:23:59;;;;;;;4.63;1.20;;;;;;;;;;4934479;29;20036;-71
2022/04/26 09:26:35;;;;;;;4.20;1.20;;;;;;;;;;4934906;29;20032;-71
2022/04/26 09:29:03;;;;;;;2.88;1.33;;;;;;;;;;4934561;29;20094;-71
2022/04/26 09:31:30;;;;;;;4.00;1.13;;;;;;;;;;4933084;29;20032;-72
2022/04/26 09:34:03;;;;;;;5.10;1.40;;;;;;;;;;4934208;29;20076;-71
2022/04/26 09:36:35;;;;;;;5.40;1.20;;;;;;;;;;4934076;29;20039;-69
2022/04/26 09:39:07;;;;;;;4.32;1.90;;;;;;;;;;4933189;29;20036;-75
2022/04/26 09:41:34;;;;;;;4.87;1.70;;;;;;;;;;4934100;29;20043;-75
2022/04/26 09:44:05;;;;;;;5.43;1.80;;;;;;;;;;4934176;29;20467;-74
2022/04/26 09:46:57;;;;;;;12.35;2.13;;;;;;;;;;4932856;29;20024;-72
2022/04/26 09:49:26;;;;;;;5.80;1.30;;;;;;;;;;4932425;29;20048;-71
2022/04/26 09:51:59;;;;;;;13.82;1.70;;;;;;;;;;4934209;28;20414;-77
2022/04/26 09:54:26;;;;;;;3.97;1.50;;;;;;;;;;4933486;29;20118;-74
2022/04/26 09:56:53;;;;;;;5.55;1.85;;;;;;;;;;4933983;29;20090;-71
2022/04/26 09:59:29;;;;;;;5.50;1.73;;;;;;;;;;4933079;29;20048;-74
2022/04/26 10:01:57;;;;;;;6.47;1.67;;;;;;;;;;4932267;29;20036;-76
2022/04/26 10:04:31;;;;;;;4.65;1.48;;;;;;;;;;4932955;29;20091;-72
2022/04/26 10:07:07;;;;;;;4.45;1.08;;;;;;;;;;4933600;29;20505;-72
2022/04/26 10:09:34;;;;;;;2.83;1.00;;;;;;;;;;4933585;29;20086;-74
2022/04/26 10:12:03;;;;;;;4.45;1.23;;;;;;;;;;4934378;29;20115;-74
2022/04/26 10:14:31;;;;;;;8.60;1.00;;;;;;;;;;4934255;29;20035;-75
2022/04/26 10:16:58;;;;;;;10.45;1.55;;;;;;;;;;4933024;29;20108;-75
2022/04/26 10:19:38;;;;;;;3.75;1.10;;;;;;;;;;4933543;29;20477;-76
2022/04/26 10:22:05;;;;;;;5.38;1.33;;;;;;;;;;4933327;29;20043;-73
2022/04/26 10:24:30;;;;;;;5.47;1.50;;;;;;;;;;4932546;29;20055;-72
2022/04/26 10:27:23;;;;;;;6.50;1.85;;;;;;;;;;4945603;29;20459;-74
2022/04/26 10:29:49;;;;;;;6.00;1.37;;;;;;;;;;4934242;29;20220;-74
2022/04/26 10:32:38;;;;;;;4.97;1.10;;;;;;;;;;4934023;29;20027;-74
2022/04/26 10:35:23;;;;;;;7.95;1.20;;;;;;;;;;4930792;29;20047;-74
2022/04/26 10:38:11;;;;;;;4.47;1.30;;;;;;;;;;4921446;29;20035;-75
2022/04/26 10:41:07;;;;;;;3.50;1.40;;;;;;;;;;4933081;29;20039;-73
2022/04/26 10:43:33;;;;;;;6.28;1.33;;;;;;;;;;4937099;29;20031;-75
2022/04/26 10:46:17;;;;;;;3.55;1.33;;;;;;;;;;4937923;29;20083;-76
2022/04/26 10:48:43;;;;;;;3.40;1.30;;;;;;;;;;4937779;29;20494;-72
2022/04/26 10:51:34;;;;;;;8.32;1.38;;;;;;;;;;4937576;29;20086;-74
2022/04/26 10:54:02;;;;;;;3.80;1.40;;;;;;;;;;4936941;29;20039;-72
2022/04/26 10:56:28;;;;;;;3.90;1.48;;;;;;;;;;4937096;29;20043;-72
2022/04/26 10:58:54;;;;;;;7.00;2.35;;;;;;;;;;4937860;29;20127;-70
2022/04/26 11:01:29;;;;;;;2.35;1.20;;;;;;;;;;4937016;29;20495;-75
2022/04/26 11:03:58;;;;;;;3.00;1.10;;;;;;;;;;4937742;29;20043;-72
2022/04/26 11:06:37;;;;;;;5.60;1.33;;;;;;;;;;4937596;29;20027;-75
2022/04/26 11:09:09;;;;;;;6.18;1.70;;;;;;;;;;4937073;29;20295;-74
2022/04/26 11:11:52;;;;;;;6.27;1.10;;;;;;;;;;4936834;29;20039;-75
2022/04/26 11:14:22;;;;;;;3.78;1.10;;;;;;;;;;4933295;29;20058;-70
2022/04/26 11:17:02;;;;;;;4.65;0.98;;;;;;;;;;4933530;29;20071;-73
2022/04/26 11:19:36;;;;;;;3.92;1.75;;;;;;;;;;4937380;29;20036;-73
2022/04/26 11:22:10;;;;;;;5.25;1.50;;;;;;;;;;4935824;29;20050;-72
2022/04/26 11:30:08;;;;;;;4.63;1.40;;;;;;;;;;4917426;29;20032;-72
2022/04/26 11:32:38;;;;;;;6.78;1.20;;;;;;;;;;4941521;29;20026;-72
2022/04/26 11:35:05;;;;;;;1.92;0.90;;;;;;;;;;4930609;29;20067;-76
2022/04/26 11:37:30;;;;;;;4.07;1.00;;;;;;;;;;4934526;29;20027;-72
2022/04/26 11:39:56;;;;;;;7.95;1.20;;;;;;;;;;4934904;29;20491;-75
2022/04/26 11:42:24;;;;;;;5.88;1.13;;;;;;;;;;4935286;29;20055;-72
2022/04/26 11:48:33;;;;;;;3.83;1.42;;;;;;;;;;4935614;29;20050;-71
2022/04/26 11:51:00;;;;;;;7.97;2.45;;;;;;;;;;4935212;29;20379;-75
2022/04/26 11:53:29;;;;;;;6.70;2.10;;;;;;;;;;4934300;29;20057;-73
2022/04/26 11:56:02;;;;;;;3.47;1.10;;;;;;;;;;4936324;29;20051;-75
2022/04/26 11:58:28;;;;;;;9.05;1.40;;;;;;;;;;4936358;29;20114;-73
2022/04/26 12:00:55;;;;;;;3.60;1.38;;;;;;;;;;4936125;29;20167;-75
2022/04/26 12:03:26;;;;;;;5.00;1.35;;;;;;;;;;4936288;29;20036;-75
2022/04/26 12:06:01;;;;;;;3.53;1.05;;;;;;;;;;4935832;29;20136;-75
2022/04/26 12:08:29;;;;;;;6.30;2.33;;;;;;;;;;4935278;29;20031;-72
2022/04/26 12:11:41;;;;;;;4.50;1.00;;;;;;;;;;4936012;29;20390;-72
2022/04/26 12:14:12;;;;;;;2.78;1.15;;;;;;;;;;4922787;29;20095;-74
2022/04/26 12:16:49;;;;;;;4.95;1.08;;;;;;;;;;4935410;29;20112;-75
2022/04/26 12:19:16;;;;;;;2.95;1.00;;;;;;;;;;4934727;29;20051;-72
2022/04/26 12:21:47;;;;;;;4.32;0.90;;;;;;;;;;4935348;29;20122;-73
2022/04/26 12:24:16;;;;;;;4.35;0.90;;;;;;;;;;4935153;29;20047;-74
2022/04/26 12:26:52;;;;;;;4.55;1.02;;;;;;;;;;4930624;29;20035;-72
2022/04/26 12:29:18;;;;;;;3.58;1.20;;;;;;;;;;4934924;29;20035;-74
2022/04/26 12:31:47;;;;;;;2.15;1.00;;;;;;;;;;4935172;29;20031;-74
2022/04/26 12:34:22;;;;;;;8.35;1.50;;;;;;;;;;4934415;29;20490;-73
2022/04/26 12:36:57;;;;;;;6.30;1.58;;;;;;;;;;4932413;29;20174;-74
2022/04/26 12:39:44;;;;;;;3.67;1.00;;;;;;;;;;4916501;29;20443;-72
2022/04/26 12:42:16;;;;;;;3.80;1.00;;;;;;;;;;4915182;29;20039;-71
2022/04/26 12:45:12;;;;;;;5.17;0.73;;;;;;;;;;4921349;29;20031;-74
2022/04/26 12:50:33;;;;;;;4.82;1.10;;;;;;;;;;4930977;29;20415;-74
2022/04/26 12:53:23;;;;;;;4.20;0.90;;;;;;;;;;4916210;29;20040;-73
2022/04/26 12:55:49;;;;;;;3.85;1.20;;;;;;;;;;4915992;29;20402;-75
2022/04/26 12:58:17;;;;;;;2.75;0.85;;;;;;;;;;4917163;29;20047;-75
2022/04/26 13:00:46;;;;;;;2.88;0.77;;;;;;;;;;4931575;28;20497;-72
2022/04/26 13:03:18;;;;;;;2.05;0.88;;;;;;;;;;4972123;28;20599;-78
2022/04/26 13:05:47;;;;;;;5.60;1.30;;;;;;;;;;4961790;28;20038;-78
2022/04/26 13:08:15;;;;;;;5.63;1.02;;;;;;;;;;4972948;28;20031;-75
2022/04/26 13:10:41;;;;;;;3.55;1.30;;;;;;;;;;4972413;28;20038;-74
2022/04/26 13:13:09;;;;;;;3.72;0.98;;;;;;;;;;4972851;28;20496;-77
2022/04/26 13:15:35;;;;;;;4.45;1.10;;;;;;;;;;4972407;28;20030;-75
2022/04/26 13:18:03;;;;;;;4.97;1.10;;;;;;;;;;4971499;28;20058;-75
2022/04/26 13:20:30;;;;;;;5.68;1.27;;;;;;;;;;4964815;28;20417;-71
2022/04/26 13:22:56;;;;;;;5.30;1.15;;;;;;;;;;4953893;28;20028;-70
2022/04/26 13:25:22;;;;;;;3.08;1.00;;;;;;;;;;4958572;28;20034;-76
2022/04/26 13:27:48;;;;;;;4.10;1.10;;;;;;;;;;4964995;28;20029;-74
2022/04/26 13:30:15;;;;;;;4.10;1.00;;;;;;;;;;4957683;28;20390;-74
2022/04/26 13:32:42;;;;;;;2.47;1.00;;;;;;;;;;4971547;28;20026;-77
2022/04/26 13:35:09;;;;;;;5.20;0.90;;;;;;;;;;4972759;28;20035;-77
2022/04/26 13:37:35;;;;;;;5.65;0.95;;;;;;;;;;4972812;28;20124;-76
2022/04/26 13:40:03;;;;;;;5.05;0.90;;;;;;;;;;4973018;28;20039;-75
2022/04/26 13:42:31;;;;;;;3.38;0.85;;;;;;;;;;4973515;28;20501;-75
2022/04/26 13:44:59;;;;;;;5.15;1.20;;;;;;;;;;4973219;28;20039;-74
2022/04/26 13:47:26;;;;;;;6.93;1.23;;;;;;;;;;4972120;28;20035;-72
2022/04/26 13:49:53;;;;;;;3.13;0.98;;;;;;;;;;4971051;28;20062;-72
2022/04/26 13:52:20;;;;;;;2.72;1.20;;;;;;;;;;4971960;28;20331;-74
2022/04/26 13:54:47;;;;;;;4.38;1.10;;;;;;;;;;4971807;28;20027;-73
2022/04/26 13:57:14;;;;;;;2.45;0.80;;;;;;;;;;4972442;28;20085;-77
2022/04/26 13:59:41;;;;;;;4.68;0.80;;;;;;;;;;4972906;28;20061;-75
2022/04/26 14:02:09;;;;;;;4.10;1.00;;;;;;;;;;4987594;28;20034;-73
2022/04/26 14:04:35;;;;;;;3.10;1.05;;;;;;;;;;4971931;28;20035;-75
2022/04/26 14:07:01;;;;;;;4.85;0.90;;;;;;;;;;4972415;28;20039;-74
2022/04/26 14:09:28;;;;;;;3.13;0.90;;;;;;;;;;4971277;28;20081;-74
2022/04/26 14:11:56;;;;;;;5.40;1.00;;;;;;;;;;4970629;28;20559;-71
2022/04/26 14:22:37;;;;;;;4.25;0.93;;;;;;;;;;4977411;28;20034;-75
2022/04/26 14:25:05;;;;;;;1.45;0.82;;;;;;;;;;4978932;28;20381;-72
2022/04/26 14:27:32;;;;;;;6.80;1.00;;;;;;;;;;4977308;28;20109;-74
2022/04/26 14:29:59;;;;;;;1.77;0.77;;;;;;;;;;4975665;28;20485;-72
2022/04/26 14:32:25;;;;;;;1.98;0.90;;;;;;;;;;4977576;28;20481;-75
2022/04/26 14:34:51;;;;;;;3.85;1.40;;;;;;;;;;4963787;28;20035;-74
2022/04/26 14:37:17;;;;;;;2.03;0.90;;;;;;;;;;4959436;28;20098;-73
2022/04/26 14:39:43;;;;;;;8.20;1.20;;;;;;;;;;4985210;28;20066;-74
2022/04/26 14:42:09;;;;;;;3.55;1.05;;;;;;;;;;4986243;28;20046;-76
2022/04/26 14:44:36;;;;;;;4.47;1.00;;;;;;;;;;4978237;28;20077;-75
2022/04/26 14:47:03;;;;;;;5.85;0.90;;;;;;;;;;4975615;28;20462;-75
2022/04/26 14:49:29;;;;;;;3.25;1.10;;;;;;;;;;4978083;28;20047;-73
2022/04/26 14:51:55;;;;;;;5.57;1.20;;;;;;;;;;4976285;28;20089;-73
2022/04/26 14:54:21;;;;;;;5.85;1.30;;;;;;;;;;4977451;28;20408;-76
2022/04/26 14:56:48;;;;;;;4.50;1.00;;;;;;;;;;4977728;28;20033;-75
2022/04/26 14:59:15;;;;;;;3.35;0.73;;;;;;;;;;4977461;28;20046;-76
2022/04/26 15:01:45;;;;;;;1.67;0.82;;;;;;;;;;4976242;28;20401;-76
2022/04/26 15:04:12;;;;;;;5.22;1.13;;;;;;;;;;4977194;28;20395;-75
2022/04/26 15:06:39;;;;;;;5.13;1.10;;;;;;;;;;4977745;28;20061;-72
2022/04/26 15:16:37;;;;;;;5.30;1.25;;;;;;;;;;4978068;28;20046;-76
2022/04/26 15:17:18;;;;;;;4.15;1.00;;;;;;;;;;4971869;28;20077;-74
2022/04/26 15:19:44;;;;;;;5.15;1.00;;;;;;;;;;4976508;28;20054;-75
2022/04/26 15:22:11;;;;;;;4.82;0.90;;;;;;;;;;4976335;28;20101;-70
2022/04/26 15:24:37;;;;;;;4.47;1.20;;;;;;;;;;4977385;28;20130;-74
2022/04/26 15:27:03;;;;;;;2.55;0.75;;;;;;;;;;4978072;28;20050;-75
2022/04/26 15:29:31;;;;;;;7.35;1.30;;;;;;;;;;4974479;28;20031;-74
2022/04/26 15:31:57;;;;;;;4.93;0.93;;;;;;;;;;4973879;28;20050;-75
2022/04/26 15:34:23;;;;;;;7.65;1.15;;;;;;;;;;4967885;28;20031;-74
2022/04/26 15:36:49;;;;;;;4.53;1.02;;;;;;;;;;4972851;28;20090;-72
2022/04/26 15:39:15;;;;;;;2.30;1.20;;;;;;;;;;4972650;28;20031;-73
2022/04/26 15:41:41;;;;;;;3.83;0.85;;;;;;;;;;4974146;28;20031;-74
2022/04/26 15:44:07;;;;;;;4.90;1.33;;;;;;;;;;4980272;28;20124;-75
2022/04/26 15:46:33;;;;;;;2.58;0.98;;;;;;;;;;4971805;28;20039;-76
2022/04/26 15:48:59;;;;;;;7.22;1.25;;;;;;;;;;4956603;28;20027;-74
2022/04/26 15:51:25;;;;;;;2.95;1.00;;;;;;;;;;4965143;28;20039;-72
2022/04/26 15:53:51;;;;;;;7.70;1.20;;;;;;;;;;4975907;28;20031;-73
2022/04/26 15:56:17;;;;;;;7.18;1.35;;;;;;;;;;4973660;28;20074;-73
2022/04/26 15:58:43;;;;;;;6.40;0.90;;;;;;;;;;4974595;28;20113;-76
2022/04/26 16:01:09;;;;;;;6.65;1.52;;;;;;;;;;4973616;28;20158;-74
2022/04/26 16:03:35;;;;;;;2.83;1.00;;;;;;;;;;4972966;28;20034;-74
2022/04/26 16:06:03;;;;;;;5.40;1.13;;;;;;;;;;4974306;28;20035;-76
2022/04/26 16:08:32;;;;;;;7.70;1.45;;;;;;;;;;4964090;28;20030;-73
2022/04/26 16:21:56;;;;;;;6.63;1.27;;;;;;;;;;4977278;28;20039;-71
2022/04/26 16:24:21;;;;;;;8.05;1.38;;;;;;;;;;4968320;28;20031;-72
2022/04/26 16:26:49;;;;;;;3.85;1.25;;;;;;;;;;4971473;28;20449;-75
2022/04/26 16:29:14;;;;;;;2.80;1.00;;;;;;;;;;4970866;28;20160;-74
2022/04/26 16:31:40;;;;;;;5.32;1.00;;;;;;;;;;4969112;28;20154;-74
2022/04/26 16:34:06;;;;;;;9.00;1.60;;;;;;;;;;4972740;28;20035;-76
2022/04/26 16:36:33;;;;;;;6.93;1.58;;;;;;;;;;4966589;28;20031;-76
2022/04/26 16:38:58;;;;;;;5.45;0.90;;;;;;;;;;4968828;28;20037;-78
2022/04/26 16:41:25;;;;;;;6.18;1.27;;;;;;;;;;4970963;28;20420;-76
2022/04/26 16:43:50;;;;;;;4.88;1.30;;;;;;;;;;4969103;28;20082;-78
2022/04/26 16:46:18;;;;;;;1.83;0.90;;;;;;;;;;4968545;28;20035;-75
2022/04/26 16:48:48;;;;;;;12.13;1.55;;;;;;;;;;4969398;28;20028;-76
2022/04/26 16:51:15;;;;;;;7.75;1.23;;;;;;;;;;4971036;28;20035;-75
2022/04/26 16:53:42;;;;;;;12.70;1.50;;;;;;;;;;4971021;28;20031;-76
2022/04/26 16:56:08;;;;;;;9.75;1.40;;;;;;;;;;4968015;28;20030;-74
2022/04/26 16:58:34;;;;;;;5.10;1.20;;;;;;;;;;4973298;28;20097;-76
2022/04/26 17:01:01;;;;;;;3.60;1.20;;;;;;;;;;4966787;28;20034;-76
2022/04/26 17:03:27;;;;;;;3.30;0.95;;;;;;;;;;4972451;28;20366;-73
2022/04/26 17:05:54;;;;;;;5.75;1.08;;;;;;;;;;4971959;28;20489;-72
2022/04/26 17:08:20;;;;;;;6.07;1.10;;;;;;;;;;4971917;28;20177;-75
2022/04/26 17:10:48;;;;;;;3.80;1.15;;;;;;;;;;4972297;28;20600;-77
2022/04/26 17:13:15;;;;;;;8.93;1.40;;;;;;;;;;4987135;28;20154;-74
2022/04/26 17:15:41;;;;;;;5.22;1.65;;;;;;;;;;4963142;28;20034;-74
2022/04/26 17:18:07;;;;;;;13.30;1.73;;;;;;;;;;4971430;28;20092;-74
2022/04/26 17:20:34;;;;;;;2.50;0.93;;;;;;;;;;4967478;28;20173;-73
2022/04/26 17:23:02;;;;;;;7.15;1.70;;;;;;;;;;4971797;28;20033;-71
2022/04/26 17:25:29;;;;;;;5.70;1.08;;;;;;;;;;4972929;28;20552;-77
2022/04/26 17:27:58;;;;;;;6.07;1.38;;;;;;;;;;4966744;28;20470;-77
2022/04/26 17:30:24;;;;;;;4.60;1.40;;;;;;;;;;4969773;28;20087;-74
2022/04/26 17:32:50;;;;;;;7.28;1.30;;;;;;;;;;4960836;28;20339;-77
2022/04/26 17:35:17;;;;;;;9.57;1.30;;;;;;;;;;4959844;28;20499;-76
2022/04/26 17:37:45;;;;;;;4.72;1.05;;;;;;;;;;4969554;28;20023;-76
2022/04/26 17:40:15;;;;;;;6.65;1.50;;;;;;;;;;4968889;28;20022;-74
2022/04/26 17:42:43;;;;;;;4.47;1.08;;;;;;;;;;4969310;28;20533;-72
2022/04/26 17:45:09;;;;;;;7.85;1.13;;;;;;;;;;4970491;28;20042;-72
2022/04/26 17:47:36;;;;;;;5.50;1.33;;;;;;;;;;4964263;28;20026;-72
2022/04/26 17:50:06;;;;;;;6.40;1.88;;;;;;;;;;4970174;28;20525;-73
2022/04/26 17:52:33;;;;;;;7.47;1.33;;;;;;;;;;4954619;28;20027;-74
2022/04/26 17:57:44;;;;;;;12.55;1.75;;;;;;;;;;4964279;28;20112;-71
2022/04/26 18:00:12;;;;;;;8.30;1.20;;;;;;;;;;4968448;28;20536;-73
2022/04/26 18:02:43;;;;;;;5.65;1.55;;;;;;;;;;4954945;28;20097;-71
2022/04/26 18:05:10;;;;;;;7.57;1.35;;;;;;;;;;4969500;28;20097;-72
2022/04/26 18:07:36;;;;;;;6.25;1.42;;;;;;;;;;4970813;28;20444;-72
2022/04/26 18:10:03;;;;;;;6.90;1.50;;;;;;;;;;4960367;28;20031;-73
2022/04/26 18:12:29;;;;;;;6.70;1.30;;;;;;;;;;4954143;28;20042;-73
2022/04/26 18:14:55;;;;;;;8.95;1.30;;;;;;;;;;4970718;28;20046;-74
2022/04/26 18:17:22;;;;;;;4.45;1.30;;;;;;;;;;4985294;28;20058;-74
2022/04/26 18:19:49;;;;;;;8.10;1.45;;;;;;;;;;4970010;28;20054;-74
2022/04/26 18:22:15;;;;;;;8.30;1.50;;;;;;;;;;4970297;28;20034;-69
2022/04/26 18:24:40;;;;;;;4.03;1.60;;;;;;;;;;4971322;28;20039;-68
2022/04/26 18:27:06;;;;;;;9.00;1.98;;;;;;;;;;4951253;28;20059;-71
2022/04/26 18:29:34;;;;;;;8.95;2.53;;;;;;;;;;4959810;28;20504;-69
2022/04/26 18:32:00;;;;;;;10.27;3.17;;;;;;;;;;4959764;28;20437;-72
2022/04/26 18:34:26;;;;;;;9.75;3.08;;;;;;;;;;4966999;28;20039;-72
2022/04/26 18:36:52;;;;;;;11.73;4.85;;;;;;;;;;4956246;28;20106;-71
2022/04/26 18:39:21;;;;;;;11.98;4.28;;;;;;;;;;4986374;28;20039;-73
2022/04/26 18:41:48;;;;;;;13.43;8.05;;;;;;;;;;4957938;28;20035;-70
2022/04/26 18:44:17;;;;;;;18.95;7.93;;;;;;;;;;4967350;28;20478;-70
2022/04/26 18:46:44;;;;;;;11.45;5.93;;;;;;;;;;4958254;28;20544;-72
2022/04/26 18:49:13;;;;;;;10.88;4.85;;;;;;;;;;4966283;28;20039;-71
2022/04/26 18:51:39;;;;;;;6.00;3.63;;;;;;;;;;4964500;28;20049;-69
2022/04/26 18:54:05;;;;;;;10.90;3.60;;;;;;;;;;4963155;28;20130;-70
2022/04/26 18:56:31;;;;;;;5.50;3.20;;;;;;;;;;4964392;28;20477;-68
2022/04/26 18:58:57;;;;;;;9.55;2.95;;;;;;;;;;4967899;28;20093;-70
2022/04/26 19:01:24;;;;;;;7.75;2.50;;;;;;;;;;4966245;28;20031;-72
2022/04/26 19:03:50;;;;;;;5.47;2.60;;;;;;;;;;4968514;28;20169;-72
2022/04/26 19:06:16;;;;;;;13.32;3.78;;;;;;;;;;4969922;28;20031;-70
2022/04/26 19:08:42;;;;;;;8.25;2.45;;;;;;;;;;4970500;28;20043;-72
2022/04/26 19:13:56;;;;;;;11.75;3.33;;;;;;;;;;4972718;28;20044;-70
2022/04/26 19:16:22;;;;;;;13.10;4.60;;;;;;;;;;4968816;28;20043;-71
2022/04/26 19:18:48;;;;;;;14.25;4.72;;;;;;;;;;4979945;28;20061;-67
2022/04/26 19:21:14;;;;;;;17.15;6.55;;;;;;;;;;4967693;28;20031;-70
2022/04/26 19:23:40;;;;;;;15.55;6.80;;;;;;;;;;4964977;28;20186;-71
2022/04/26 19:26:06;;;;;;;22.20;6.78;;;;;;;;;;4962700;28;20627;-70
2022/04/26 19:28:33;;;;;;;16.95;5.68;;;;;;;;;;4972986;28;20073;-67